sensor_id;sensor_type;location;lat;lon;timestamp;pressure;altitude;pressure_sealevel;temperature;humidity
78085;BME280;67541;47.710;17.732;2023-02-17T00:01:20;101450.31;;;-1.71;94.16
78085;BME280;67541;47.710;17.732;2023-02-17T00:03:47;101464.34;;;-1.72;94.13
78085;BME280;67541;47.710;17.732;2023-02-17T00:06:15;101456.12;;;-1.66;94.12
78085;BME280;67541;47.710;17.732;2023-02-17T00:08:40;101451.72;;;-1.65;94.13
78085;BME280;67541;47.710;17.732;2023-02-17T00:11:06;101465.84;;;-1.68;94.04
78085;BME280;67541;47.710;17.732;2023-02-17T00:13:31;101463.53;;;-1.72;94.06
78085;BME280;67541;47.710;17.732;2023-02-17T00:15:57;101467.06;;;-1.73;94.10
78085;BME280;67541;47.710;17.732;2023-02-17T00:18:23;101464.72;;;-1.78;94.07
78085;BME280;67541;47.710;17.732;2023-02-17T00:20:49;101464.06;;;-1.81;94.07
78085;BME280;67541;47.710;17.732;2023-02-17T00:23:14;101466.78;;;-1.83;94.11
78085;BME280;67541;47.710;17.732;2023-02-17T00:25:40;101462.72;;;-1.88;94.03
78085;BME280;67541;47.710;17.732;2023-02-17T00:28:05;101468.06;;;-1.90;93.98
78085;BME280;67541;47.710;17.732;2023-02-17T00:30:31;101467.16;;;-1.89;93.99
78085;BME280;67541;47.710;17.732;2023-02-17T00:32:58;101466.22;;;-1.88;93.94
78085;BME280;67541;47.710;17.732;2023-02-17T00:35:24;101474.88;;;-1.87;93.92
78085;BME280;67541;47.710;17.732;2023-02-17T00:37:49;101467.31;;;-1.92;93.88
78085;BME280;67541;47.710;17.732;2023-02-17T00:40:15;101470.03;;;-1.93;93.89
78085;BME280;67541;47.710;17.732;2023-02-17T00:42:40;101462.69;;;-2.02;93.88
78085;BME280;67541;47.710;17.732;2023-02-17T00:45:06;101468.44;;;-1.96;93.97
78085;BME280;67541;47.710;17.732;2023-02-17T00:47:32;101478.25;;;-1.99;93.99
78085;BME280;67541;47.710;17.732;2023-02-17T00:49:57;101478.41;;;-2.02;94.05
78085;BME280;67541;47.710;17.732;2023-02-17T00:52:23;101464.91;;;-2.10;94.07
78085;BME280;67541;47.710;17.732;2023-02-17T00:54:48;101472.59;;;-2.07;94.04
78085;BME280;67541;47.710;17.732;2023-02-17T00:57:13;101471.75;;;-2.08;94.06
78085;BME280;67541;47.710;17.732;2023-02-17T00:59:39;101469.81;;;-2.04;94.08
78085;BME280;67541;47.710;17.732;2023-02-17T01:02:04;101466.00;;;-1.85;94.12
78085;BME280;67541;47.710;17.732;2023-02-17T01:04:30;101466.59;;;-1.66;94.07
78085;BME280;67541;47.710;17.732;2023-02-17T01:06:55;101459.84;;;-1.84;94.05
78085;BME280;67541;47.710;17.732;2023-02-17T01:09:21;101463.38;;;-1.85;94.08
78085;BME280;67541;47.710;17.732;2023-02-17T01:11:46;101470.50;;;-1.87;94.08
78085;BME280;67541;47.710;17.732;2023-02-17T01:14:12;101472.47;;;-1.90;94.06
78085;BME280;67541;47.710;17.732;2023-02-17T01:16:40;101473.22;;;-1.88;94.06
78085;BME280;67541;47.710;17.732;2023-02-17T01:19:11;101466.38;;;-1.91;94.04
78085;BME280;67541;47.710;17.732;2023-02-17T01:21:36;101466.78;;;-1.83;94.01
78085;BME280;67541;47.710;17.732;2023-02-17T01:24:04;101468.75;;;-1.86;94.03
78085;BME280;67541;47.710;17.732;2023-02-17T01:26:32;101471.44;;;-1.88;94.08
78085;BME280;67541;47.710;17.732;2023-02-17T01:28:58;101472.19;;;-1.86;94.10
78085;BME280;67541;47.710;17.732;2023-02-17T01:31:23;101463.75;;;-1.91;93.97
78085;BME280;67541;47.710;17.732;2023-02-17T01:33:52;101457.41;;;-1.87;93.96
78085;BME280;67541;47.710;17.732;2023-02-17T01:36:18;101460.97;;;-1.88;94.00
78085;BME280;67541;47.710;17.732;2023-02-17T01:38:44;101456.31;;;-1.69;94.00
78085;BME280;67541;47.710;17.732;2023-02-17T01:41:11;101444.59;;;-1.77;93.99
78085;BME280;67541;47.710;17.732;2023-02-17T01:43:37;101442.56;;;-1.72;94.01
78085;BME280;67541;47.710;17.732;2023-02-17T01:46:04;101441.72;;;-1.73;93.95
78085;BME280;67541;47.710;17.732;2023-02-17T01:48:35;101438.44;;;-1.76;94.00
78085;BME280;67541;47.710;17.732;2023-02-17T01:51:09;101446.28;;;-1.76;94.02
78085;BME280;67541;47.710;17.732;2023-02-17T01:53:46;101430.75;;;-1.79;94.14
78085;BME280;67541;47.710;17.732;2023-02-17T01:56:14;101437.50;;;-1.75;94.11
78085;BME280;67541;47.710;17.732;2023-02-17T01:58:42;101438.34;;;-1.75;94.08
78085;BME280;67541;47.710;17.732;2023-02-17T02:01:09;101423.06;;;-1.68;94.11
78085;BME280;67541;47.710;17.732;2023-02-17T02:03:36;101419.53;;;-1.67;94.15
78085;BME280;67541;47.710;17.732;2023-02-17T02:06:06;101426.72;;;-1.57;94.13
78085;BME280;67541;47.710;17.732;2023-02-17T02:08:40;101424.59;;;-1.64;94.11
78085;BME280;67541;47.710;17.732;2023-02-17T02:11:09;101428.03;;;-1.78;94.08
78085;BME280;67541;47.710;17.732;2023-02-17T02:13:34;101432.63;;;-1.81;94.08
78085;BME280;67541;47.710;17.732;2023-02-17T02:16:09;101423.19;;;-1.70;94.04
78085;BME280;67541;47.710;17.732;2023-02-17T02:24:14;101423.06;;;-1.68;94.01
78085;BME280;67541;47.710;17.732;2023-02-17T02:37:56;101426.47;;;-1.80;94.09
78085;BME280;67541;47.710;17.732;2023-02-17T02:40:28;101416.91;;;-1.81;94.17
78085;BME280;67541;47.710;17.732;2023-02-17T02:42:55;101415.97;;;-1.80;94.16
78085;BME280;67541;47.710;17.732;2023-02-17T02:45:22;101401.69;;;-1.61;94.22
78085;BME280;67541;47.710;17.732;2023-02-17T02:47:55;101403.91;;;-1.55;94.15
78085;BME280;67541;47.710;17.732;2023-02-17T02:55:52;101399.97;;;-1.62;94.03
78085;BME280;67541;47.710;17.732;2023-02-17T03:01:21;101393.81;;;-1.75;94.08
78085;BME280;67541;47.710;17.732;2023-02-17T03:06:42;101383.22;;;-1.73;93.97
78085;BME280;67541;47.710;17.732;2023-02-17T03:09:21;101383.88;;;-1.84;94.00
78085;BME280;67541;47.710;17.732;2023-02-17T03:11:48;101373.97;;;-1.93;93.96
78085;BME280;67541;47.710;17.732;2023-02-17T03:14:17;101376.47;;;-1.91;94.06
78085;BME280;67541;47.710;17.732;2023-02-17T03:16:44;101372.00;;;-1.89;94.13
78085;BME280;67541;47.710;17.732;2023-02-17T03:19:11;101375.56;;;-1.90;94.18
78085;BME280;67541;47.710;17.732;2023-02-17T03:21:42;101374.53;;;-1.88;94.16
78085;BME280;67541;47.710;17.732;2023-02-17T03:24:10;101378.25;;;-1.92;94.12
78085;BME280;67541;47.710;17.732;2023-02-17T03:26:36;101385.56;;;-1.83;94.14
78085;BME280;67541;47.710;17.732;2023-02-17T03:29:01;101382.00;;;-1.82;94.20
78085;BME280;67541;47.710;17.732;2023-02-17T03:31:27;101386.37;;;-1.82;94.21
78085;BME280;67541;47.710;17.732;2023-02-17T03:33:52;101382.00;;;-1.82;94.17
78085;BME280;67541;47.710;17.732;2023-02-17T03:36:18;101373.28;;;-1.82;94.22
78085;BME280;67541;47.710;17.732;2023-02-17T03:38:43;101369.84;;;-1.83;94.34
78085;BME280;67541;47.710;17.732;2023-02-17T03:41:09;101380.72;;;-1.89;94.52
78085;BME280;67541;47.710;17.732;2023-02-17T03:43:34;101380.03;;;-1.92;94.49
78085;BME280;67541;47.710;17.732;2023-02-17T03:46:00;101389.78;;;-1.94;94.46
78085;BME280;67541;47.710;17.732;2023-02-17T03:48:25;101391.06;;;-1.87;94.43
78085;BME280;67541;47.710;17.732;2023-02-17T03:50:51;101378.75;;;-1.85;94.31
78085;BME280;67541;47.710;17.732;2023-02-17T03:53:16;101386.94;;;-1.77;94.23
78085;BME280;67541;47.710;17.732;2023-02-17T03:55:42;101391.28;;;-1.62;94.02
78085;BME280;67541;47.710;17.732;2023-02-17T03:58:07;101386.75;;;-1.46;93.65
78085;BME280;67541;47.710;17.732;2023-02-17T04:00:32;101399.22;;;-1.50;93.40
78085;BME280;67541;47.710;17.732;2023-02-17T04:02:58;101394.78;;;-1.35;93.19
78085;BME280;67541;47.710;17.732;2023-02-17T04:05:23;101391.38;;;-1.50;93.22
78085;BME280;67541;47.710;17.732;2023-02-17T04:07:49;101386.13;;;-1.50;93.16
78085;BME280;67541;47.710;17.732;2023-02-17T04:10:15;101386.28;;;-1.39;92.99
78085;BME280;67541;47.710;17.732;2023-02-17T04:12:40;101394.62;;;-1.46;93.01
78085;BME280;67541;47.710;17.732;2023-02-17T04:15:06;101385.34;;;-1.52;92.99
78085;BME280;67541;47.710;17.732;2023-02-17T04:17:32;101381.97;;;-1.26;92.72
78085;BME280;67541;47.710;17.732;2023-02-17T04:19:57;101377.53;;;-1.11;92.20
78085;BME280;67541;47.710;17.732;2023-02-17T04:22:23;101380.53;;;-1.17;92.08
78085;BME280;67541;47.710;17.732;2023-02-17T04:24:48;101388.78;;;-1.23;92.32
78085;BME280;67541;47.710;17.732;2023-02-17T04:27:13;101387.13;;;-1.24;92.28
78085;BME280;67541;47.710;17.732;2023-02-17T04:29:39;101378.03;;;-1.19;92.13
78085;BME280;67541;47.710;17.732;2023-02-17T04:32:04;101382.63;;;-0.96;91.57
78085;BME280;67541;47.710;17.732;2023-02-17T04:34:30;101380.66;;;-0.92;90.96
78085;BME280;67541;47.710;17.732;2023-02-17T04:36:55;101374.59;;;-0.80;90.70
78085;BME280;67541;47.710;17.732;2023-02-17T04:39:20;101380.06;;;-0.83;90.82
78085;BME280;67541;47.710;17.732;2023-02-17T04:41:46;101381.44;;;-1.04;90.81
78085;BME280;67541;47.710;17.732;2023-02-17T04:44:11;101380.25;;;-1.13;90.71
78085;BME280;67541;47.710;17.732;2023-02-17T04:46:37;101380.34;;;-1.14;90.58
78085;BME280;67541;47.710;17.732;2023-02-17T04:49:02;101375.09;;;-1.14;90.67
78085;BME280;67541;47.710;17.732;2023-02-17T04:51:28;101379.03;;;-1.07;90.61
78085;BME280;67541;47.710;17.732;2023-02-17T04:53:53;101359.88;;;-0.95;90.55
78085;BME280;67541;47.710;17.732;2023-02-17T04:56:19;101374.12;;;-0.99;90.50
78085;BME280;67541;47.710;17.732;2023-02-17T04:58:44;101367.59;;;-1.06;90.52
78085;BME280;67541;47.710;17.732;2023-02-17T05:01:10;101371.81;;;-1.04;90.58
78085;BME280;67541;47.710;17.732;2023-02-17T05:03:35;101367.50;;;-1.05;90.39
78085;BME280;67541;47.710;17.732;2023-02-17T05:06:01;101371.91;;;-1.05;90.35
78085;BME280;67541;47.710;17.732;2023-02-17T05:08:26;101365.78;;;-1.06;90.45
78085;BME280;67541;47.710;17.732;2023-02-17T05:10:52;101349.22;;;-0.80;90.21
78085;BME280;67541;47.710;17.732;2023-02-17T05:13:17;101359.19;;;-0.85;90.04
78085;BME280;67541;47.710;17.732;2023-02-17T05:15:43;101359.22;;;-0.72;90.19
78085;BME280;67541;47.710;17.732;2023-02-17T05:18:10;101360.56;;;-0.79;89.79
78085;BME280;67541;47.710;17.732;2023-02-17T05:20:35;101345.78;;;-0.68;89.69
78085;BME280;67541;47.710;17.732;2023-02-17T05:23:00;101358.00;;;-0.54;89.39
78085;BME280;67541;47.710;17.732;2023-02-17T05:25:26;101364.03;;;-0.79;89.93
78085;BME280;67541;47.710;17.732;2023-02-17T05:27:51;101355.09;;;-0.76;90.09
78085;BME280;67541;47.710;17.732;2023-02-17T05:30:17;101351.38;;;-0.60;89.91
78085;BME280;67541;47.710;17.732;2023-02-17T05:32:42;101354.28;;;-0.77;90.25
78085;BME280;67541;47.710;17.732;2023-02-17T05:35:08;101352.88;;;-0.82;90.22
78085;BME280;67541;47.710;17.732;2023-02-17T05:37:33;101353.06;;;-0.85;90.20
78085;BME280;67541;47.710;17.732;2023-02-17T05:39:59;101343.34;;;-0.83;90.28
78085;BME280;67541;47.710;17.732;2023-02-17T05:42:24;101335.63;;;-0.47;89.56
78085;BME280;67541;47.710;17.732;2023-02-17T05:44:56;101346.88;;;-0.58;89.91
78085;BME280;67541;47.710;17.732;2023-02-17T05:47:22;101356.88;;;-0.50;89.68
78085;BME280;67541;47.710;17.732;2023-02-17T05:49:47;101354.84;;;-0.59;89.79
78085;BME280;67541;47.710;17.732;2023-02-17T05:52:13;101345.50;;;-0.63;89.86
78085;BME280;67541;47.710;17.732;2023-02-17T05:54:38;101365.19;;;-0.70;90.08
78085;BME280;67541;47.710;17.732;2023-02-17T05:57:03;101366.13;;;-0.71;90.19
78085;BME280;67541;47.710;17.732;2023-02-17T05:59:29;101361.66;;;-0.69;90.30
78085;BME280;67541;47.710;17.732;2023-02-17T06:01:54;101356.09;;;-0.52;90.10
78085;BME280;67541;47.710;17.732;2023-02-17T06:04:20;101358.72;;;-0.52;90.18
78085;BME280;67541;47.710;17.732;2023-02-17T06:06:45;101355.28;;;-0.53;90.24
78085;BME280;67541;47.710;17.732;2023-02-17T06:09:11;101365.03;;;-0.55;90.15
78085;BME280;67541;47.710;17.732;2023-02-17T06:11:36;101362.50;;;-0.56;90.20
78085;BME280;67541;47.710;17.732;2023-02-17T06:14:02;101350.66;;;-0.49;90.29
78085;BME280;67541;47.710;17.732;2023-02-17T06:16:28;101350.97;;;-0.54;90.04
78085;BME280;67541;47.710;17.732;2023-02-17T06:18:53;101356.34;;;-0.55;90.27
78085;BME280;67541;47.710;17.732;2023-02-17T06:21:19;101350.34;;;-0.45;90.35
78085;BME280;67541;47.710;17.732;2023-02-17T06:23:44;101359.84;;;-0.30;90.04
78085;BME280;67541;47.710;17.732;2023-02-17T06:26:09;101360.75;;;-0.31;89.96
78085;BME280;67541;47.710;17.732;2023-02-17T06:28:35;101367.72;;;-0.30;89.83
78085;BME280;67541;47.710;17.732;2023-02-17T06:31:00;101364.56;;;-0.35;89.87
78085;BME280;67541;47.710;17.732;2023-02-17T06:33:26;101359.94;;;-0.31;89.85
78085;BME280;67541;47.710;17.732;2023-02-17T06:35:51;101372.47;;;-0.22;89.64
78085;BME280;67541;47.710;17.732;2023-02-17T06:38:17;101370.47;;;-0.19;89.91
78085;BME280;67541;47.710;17.732;2023-02-17T06:40:43;101368.56;;;-0.17;90.07
78085;BME280;67541;47.710;17.732;2023-02-17T06:43:08;101371.75;;;-0.12;90.04
78085;BME280;67541;47.710;17.732;2023-02-17T06:45:34;101373.09;;;-0.06;89.83
78085;BME280;67541;47.710;17.732;2023-02-17T06:47:59;101379.91;;;-0.04;89.80
78085;BME280;67541;47.710;17.732;2023-02-17T06:50:25;101377.28;;;-0.04;89.77
78085;BME280;67541;47.710;17.732;2023-02-17T06:52:50;101373.94;;;-0.06;89.71
78085;BME280;67541;47.710;17.732;2023-02-17T06:55:15;101382.66;;;-0.05;89.92
78085;BME280;67541;47.710;17.732;2023-02-17T06:57:41;101379.81;;;0.10;89.71
78085;BME280;67541;47.710;17.732;2023-02-17T07:00:07;101383.50;;;0.20;89.65
78085;BME280;67541;47.710;17.732;2023-02-17T07:02:32;101380.56;;;0.37;89.36
78085;BME280;67541;47.710;17.732;2023-02-17T07:04:58;101380.62;;;0.48;89.17
78085;BME280;67541;47.710;17.732;2023-02-17T07:07:23;101370.75;;;0.39;89.14
78085;BME280;67541;47.710;17.732;2023-02-17T07:09:48;101376.66;;;0.43;89.22
78085;BME280;67541;47.710;17.732;2023-02-17T07:12:14;101372.75;;;0.48;89.07
78085;BME280;67541;47.710;17.732;2023-02-17T07:14:39;101386.22;;;0.44;89.26
78085;BME280;67541;47.710;17.732;2023-02-17T07:17:05;101376.44;;;0.46;89.31
78085;BME280;67541;47.710;17.732;2023-02-17T07:19:30;101364.84;;;0.61;88.52
78085;BME280;67541;47.710;17.732;2023-02-17T07:21:56;101373.78;;;0.71;88.47
78085;BME280;67541;47.710;17.732;2023-02-17T07:24:21;101370.22;;;0.96;87.63
78085;BME280;67541;47.710;17.732;2023-02-17T07:26:47;101374.44;;;0.86;87.55
78085;BME280;67541;47.710;17.732;2023-02-17T07:29:13;101371.00;;;0.85;87.75
78085;BME280;67541;47.710;17.732;2023-02-17T07:31:38;101358.81;;;0.84;87.57
78085;BME280;67541;47.710;17.732;2023-02-17T07:34:04;101356.78;;;0.88;87.56
78085;BME280;67541;47.710;17.732;2023-02-17T07:36:30;101357.28;;;0.93;87.55
78085;BME280;67541;47.710;17.732;2023-02-17T07:38:55;101350.91;;;0.84;87.75
78085;BME280;67541;47.710;17.732;2023-02-17T07:41:22;101362.09;;;0.99;87.54
78085;BME280;67541;47.710;17.732;2023-02-17T07:43:55;101364.16;;;1.06;87.65
78085;BME280;67541;47.710;17.732;2023-02-17T07:46:23;101356.00;;;1.22;87.40
78085;BME280;67541;47.710;17.732;2023-02-17T07:48:48;101353.16;;;1.25;87.13
78085;BME280;67541;47.710;17.732;2023-02-17T07:51:16;101352.63;;;1.43;86.94
78085;BME280;67541;47.710;17.732;2023-02-17T07:53:42;101345.94;;;1.50;86.45
78085;BME280;67541;47.710;17.732;2023-02-17T07:56:10;101366.25;;;1.72;86.49
78085;BME280;67541;47.710;17.732;2023-02-17T07:58:38;101374.75;;;1.75;85.68
78085;BME280;67541;47.710;17.732;2023-02-17T08:01:15;101365.66;;;1.68;86.04
78085;BME280;67541;47.710;17.732;2023-02-17T08:03:41;101346.16;;;1.82;85.70
78085;BME280;67541;47.710;17.732;2023-02-17T08:06:12;101340.56;;;1.97;85.80
78085;BME280;67541;47.710;17.732;2023-02-17T08:08:39;101337.31;;;2.05;85.94
78085;BME280;67541;47.710;17.732;2023-02-17T08:11:23;101339.13;;;2.04;86.58
78085;BME280;67541;47.710;17.732;2023-02-17T08:14:07;101343.19;;;1.97;86.29
78085;BME280;67541;47.710;17.732;2023-02-17T08:16:32;101330.59;;;1.90;86.15
78085;BME280;67541;47.710;17.732;2023-02-17T08:18:58;101342.09;;;1.89;86.91
78085;BME280;67541;47.710;17.732;2023-02-17T08:21:25;101340.31;;;2.00;86.84
78085;BME280;67541;47.710;17.732;2023-02-17T08:23:51;101341.41;;;2.20;87.02
78085;BME280;67541;47.710;17.732;2023-02-17T08:26:17;101334.13;;;2.34;86.71
78085;BME280;67541;47.710;17.732;2023-02-17T08:28:44;101328.09;;;2.54;86.33
78085;BME280;67541;47.710;17.732;2023-02-17T08:31:29;101325.44;;;2.76;86.14
78085;BME280;67541;47.710;17.732;2023-02-17T08:33:55;101329.81;;;2.98;86.25
78085;BME280;67541;47.710;17.732;2023-02-17T08:36:22;101331.31;;;3.22;84.94
78085;BME280;67541;47.710;17.732;2023-02-17T08:38:49;101333.97;;;3.43;83.91
78085;BME280;67541;47.710;17.732;2023-02-17T08:41:27;101327.28;;;3.59;82.51
78085;BME280;67541;47.710;17.732;2023-02-17T08:43:57;101323.47;;;3.73;82.15
78085;BME280;67541;47.710;17.732;2023-02-17T08:46:23;101329.63;;;3.94;82.01
78085;BME280;67541;47.710;17.732;2023-02-17T08:48:49;101327.44;;;4.08;81.34
78085;BME280;67541;47.710;17.732;2023-02-17T08:51:18;101335.75;;;4.24;81.41
78085;BME280;67541;47.710;17.732;2023-02-17T08:53:48;101333.03;;;4.35;80.02
78085;BME280;67541;47.710;17.732;2023-02-17T08:56:13;101337.50;;;4.44;80.00
78085;BME280;67541;47.710;17.732;2023-02-17T08:58:39;101340.34;;;4.52;80.14
78085;BME280;67541;47.710;17.732;2023-02-17T09:01:04;101333.13;;;4.64;79.74
78085;BME280;67541;47.710;17.732;2023-02-17T09:03:33;101337.22;;;4.77;79.39
78085;BME280;67541;47.710;17.732;2023-02-17T09:05:58;101338.91;;;4.97;79.53
78085;BME280;67541;47.710;17.732;2023-02-17T09:08:24;101335.06;;;5.11;79.18
78085;BME280;67541;47.710;17.732;2023-02-17T09:10:50;101327.94;;;5.02;79.12
78085;BME280;67541;47.710;17.732;2023-02-17T09:13:16;101323.91;;;5.36;79.02
78085;BME280;67541;47.710;17.732;2023-02-17T09:15:42;101315.09;;;5.73;78.39
78085;BME280;67541;47.710;17.732;2023-02-17T09:18:07;101315.19;;;6.00;77.09
78085;BME280;67541;47.710;17.732;2023-02-17T09:20:33;101315.56;;;6.24;76.91
78085;BME280;67541;47.710;17.732;2023-02-17T09:22:58;101313.78;;;6.42;75.99
78085;BME280;67541;47.710;17.732;2023-02-17T09:25:24;101319.03;;;6.61;76.58
78085;BME280;67541;47.710;17.732;2023-02-17T09:27:49;101313.94;;;6.68;75.49
78085;BME280;67541;47.710;17.732;2023-02-17T09:30:15;101318.09;;;6.80;75.02
78085;BME280;67541;47.710;17.732;2023-02-17T09:32:41;101318.03;;;6.89;74.70
78085;BME280;67541;47.710;17.732;2023-02-17T09:35:09;101318.81;;;6.99;74.74
78085;BME280;67541;47.710;17.732;2023-02-17T09:37:35;101315.63;;;7.13;74.35
78085;BME280;67541;47.710;17.732;2023-02-17T09:40:00;101308.09;;;7.26;74.19
78085;BME280;67541;47.710;17.732;2023-02-17T09:42:27;101304.22;;;7.38;74.37
78085;BME280;67541;47.710;17.732;2023-02-17T09:45:06;101302.25;;;7.40;74.40
78085;BME280;67541;47.710;17.732;2023-02-17T09:47:39;101299.50;;;7.50;74.07
78085;BME280;67541;47.710;17.732;2023-02-17T09:50:31;101297.09;;;7.82;73.47
78085;BME280;67541;47.710;17.732;2023-02-17T09:53:01;101296.91;;;8.01;72.98
78085;BME280;67541;47.710;17.732;2023-02-17T09:55:33;101294.97;;;8.11;73.11
78085;BME280;67541;47.710;17.732;2023-02-17T09:58:08;101305.34;;;8.22;72.77
78085;BME280;67541;47.710;17.732;2023-02-17T10:00:43;101301.13;;;8.37;73.31
78085;BME280;67541;47.710;17.732;2023-02-17T10:05:45;101297.34;;;8.47;73.65
78085;BME280;67541;47.710;17.732;2023-02-17T10:08:21;101294.56;;;8.57;72.81
78085;BME280;67541;47.710;17.732;2023-02-17T10:10:53;101289.59;;;8.62;71.95
78085;BME280;67541;47.710;17.732;2023-02-17T10:13:21;101288.13;;;8.67;71.79
78085;BME280;67541;47.710;17.732;2023-02-17T10:15:51;101288.84;;;8.85;71.34
78085;BME280;67541;47.710;17.732;2023-02-17T10:18:55;101286.16;;;8.93;71.57
78085;BME280;67541;47.710;17.732;2023-02-17T10:21:43;101273.38;;;9.05;71.74
78085;BME280;67541;47.710;17.732;2023-02-17T10:24:10;101286.19;;;9.01;72.33
78085;BME280;67541;47.710;17.732;2023-02-17T10:26:59;101282.03;;;8.99;72.53
78085;BME280;67541;47.710;17.732;2023-02-17T10:32:25;101280.56;;;9.04;72.45
78085;BME280;67541;47.710;17.732;2023-02-17T10:40:22;101290.34;;;8.88;72.92
78085;BME280;67541;47.710;17.732;2023-02-17T10:42:54;101270.19;;;9.01;72.94
78085;BME280;67541;47.710;17.732;2023-02-17T10:47:46;101270.06;;;9.27;71.10
78085;BME280;67541;47.710;17.732;2023-02-17T10:50:22;101239.91;;;9.42;70.09
78085;BME280;67541;47.710;17.732;2023-02-17T10:52:49;101246.87;;;9.75;63.97
78085;BME280;67541;47.710;17.732;2023-02-17T10:55:36;101235.50;;;9.97;62.27
78085;BME280;67541;47.710;17.732;2023-02-17T10:58:13;101235.91;;;10.25;61.58
78085;BME280;67541;47.710;17.732;2023-02-17T11:00:41;101231.38;;;10.33;60.25
78085;BME280;67541;47.710;17.732;2023-02-17T11:03:18;101237.22;;;10.37;60.03
78085;BME280;67541;47.710;17.732;2023-02-17T11:05:52;101225.75;;;10.20;59.72
78085;BME280;67541;47.710;17.732;2023-02-17T11:11:27;101233.59;;;10.22;60.18
78085;BME280;67541;47.710;17.732;2023-02-17T11:16:41;101203.53;;;10.58;59.39
78085;BME280;67541;47.710;17.732;2023-02-17T11:19:21;101201.38;;;10.54;58.27
78085;BME280;67541;47.710;17.732;2023-02-17T11:21:53;101209.97;;;10.41;59.44
78085;BME280;67541;47.710;17.732;2023-02-17T11:24:19;101207.69;;;10.30;59.79
78085;BME280;67541;47.710;17.732;2023-02-17T11:27:36;101218.22;;;10.24;59.73
78085;BME280;67541;47.710;17.732;2023-02-17T11:29:43;101216.63;;;10.07;60.90
78085;BME280;67541;47.710;17.732;2023-02-17T11:32:11;101204.00;;;9.77;61.84
78085;BME280;67541;47.710;17.732;2023-02-17T11:34:40;101194.03;;;9.47;64.05
78085;BME280;67541;47.710;17.732;2023-02-17T11:39:40;101182.72;;;9.13;68.02
78085;BME280;67541;47.710;17.732;2023-02-17T11:42:34;101183.06;;;9.18;66.83
78085;BME280;67541;47.710;17.732;2023-02-17T11:45:17;101175.38;;;9.39;67.02
78085;BME280;67541;47.710;17.732;2023-02-17T11:50:59;101161.75;;;9.88;64.86
78085;BME280;67541;47.710;17.732;2023-02-17T11:56:33;101181.09;;;9.90;64.46
78085;BME280;67541;47.710;17.732;2023-02-17T11:59:10;101174.72;;;9.91;64.84
78085;BME280;67541;47.710;17.732;2023-02-17T12:04:32;101170.56;;;9.89;66.86
78085;BME280;67541;47.710;17.732;2023-02-17T12:07:29;101178.72;;;9.95;66.35
78085;BME280;67541;47.710;17.732;2023-02-17T12:10:36;101164.69;;;10.09;66.13
78085;BME280;67541;47.710;17.732;2023-02-17T12:13:21;101166.59;;;10.31;65.03
78085;BME280;67541;47.710;17.732;2023-02-17T12:15:55;101171.47;;;10.58;64.64
78085;BME280;67541;47.710;17.732;2023-02-17T12:26:49;101150.75;;;10.83;67.55
78085;BME280;67541;47.710;17.732;2023-02-17T12:29:58;101143.19;;;10.86;67.67
78085;BME280;67541;47.710;17.732;2023-02-17T12:32:18;101146.38;;;11.04;66.60
78085;BME280;67541;47.710;17.732;2023-02-17T12:35:20;101133.22;;;11.17;65.35
78085;BME280;67541;47.710;17.732;2023-02-17T12:38:11;101122.31;;;11.19;64.25
78085;BME280;67541;47.710;17.732;2023-02-17T12:40:44;101137.12;;;11.29;67.59
78085;BME280;67541;47.710;17.732;2023-02-17T12:43:32;101131.41;;;11.47;68.14
78085;BME280;67541;47.710;17.732;2023-02-17T12:46:05;101133.62;;;11.43;67.19
78085;BME280;67541;47.710;17.732;2023-02-17T12:51:25;101131.53;;;11.39;68.65
78085;BME280;67541;47.710;17.732;2023-02-17T12:53:58;101101.50;;;11.43;67.33
78085;BME280;67541;47.710;17.732;2023-02-17T12:58:51;101131.66;;;11.74;65.33
78085;BME280;67541;47.710;17.732;2023-02-17T13:01:18;101120.47;;;12.00;64.66
78085;BME280;67541;47.710;17.732;2023-02-17T13:03:46;101122.41;;;12.06;67.30
78085;BME280;67541;47.710;17.732;2023-02-17T13:09:15;101106.69;;;12.03;68.09
78085;BME280;67541;47.710;17.732;2023-02-17T13:11:41;101104.13;;;11.80;68.37
78085;BME280;67541;47.710;17.732;2023-02-17T13:14:45;101108.75;;;11.72;68.87
78085;BME280;67541;47.710;17.732;2023-02-17T13:17:34;101086.41;;;11.50;69.44
78085;BME280;67541;47.710;17.732;2023-02-17T13:22:35;101090.22;;;11.04;71.39
78085;BME280;67541;47.710;17.732;2023-02-17T13:25:01;101087.03;;;11.01;71.34
78085;BME280;67541;47.710;17.732;2023-02-17T13:32:33;101087.25;;;10.77;71.33
78085;BME280;67541;47.710;17.732;2023-02-17T13:35:05;101084.69;;;10.69;71.22
78085;BME280;67541;47.710;17.732;2023-02-17T13:40:01;101093.94;;;10.58;71.09
78085;BME280;67541;47.710;17.732;2023-02-17T13:42:34;101087.41;;;10.61;71.51
78085;BME280;67541;47.710;17.732;2023-02-17T13:45:09;101078.72;;;10.59;71.52
78085;BME280;67541;47.710;17.732;2023-02-17T13:47:35;101071.19;;;10.62;71.20
78085;BME280;67541;47.710;17.732;2023-02-17T13:50:03;101071.31;;;10.69;70.68
78085;BME280;67541;47.710;17.732;2023-02-17T13:52:30;101068.09;;;10.73;70.63
78085;BME280;67541;47.710;17.732;2023-02-17T13:54:59;101054.06;;;10.71;70.90
78085;BME280;67541;47.710;17.732;2023-02-17T13:57:35;101062.56;;;10.75;70.21
78085;BME280;67541;47.710;17.732;2023-02-17T14:00:25;101057.37;;;10.73;68.21
78085;BME280;67541;47.710;17.732;2023-02-17T14:02:58;101063.75;;;10.72;67.42
78085;BME280;67541;47.710;17.732;2023-02-17T14:08:01;101049.38;;;10.73;66.17
78085;BME280;67541;47.710;17.732;2023-02-17T14:10:28;101051.31;;;10.79;66.17
78085;BME280;67541;47.710;17.732;2023-02-17T14:12:54;101052.78;;;10.82;67.29
78085;BME280;67541;47.710;17.732;2023-02-17T14:15:23;101047.28;;;10.83;66.75
78085;BME280;67541;47.710;17.732;2023-02-17T14:17:49;101046.06;;;10.86;66.69
78085;BME280;67541;47.710;17.732;2023-02-17T14:20:33;101051.25;;;10.87;66.49